Time;durP1;ratioP1;P1;durP2;ratioP2;P2;SDS_P1;SDS_P2;PMS_P1;PMS_P2;Temp;Humidity;BMP_temperature;BMP_pressure;BME280_temperature;BME280_humidity;BME280_pressure;Samples;Min_cycle;Max_cycle;Signal;HPM_P1;HPM_P2
2023/05/23 00:02:29;;;;;;;75.63;28.88;;;;;;;13.17;100.00;101550.84;10356580;28;20042;-70
2023/05/23 00:07:31;;;;;;;73.88;28.48;;;;;;;13.14;100.00;101538.38;10357691;28;20046;-70
2023/05/23 00:12:32;;;;;;;68.80;27.52;;;;;;;13.16;100.00;101544.47;10375020;28;20038;-70
2023/05/23 00:17:33;;;;;;;71.57;28.67;;;;;;;13.18;100.00;101547.81;10374220;28;20045;-70
2023/05/23 00:22:33;;;;;;;55.08;26.15;;;;;;;13.15;100.00;101548.34;10374828;28;20065;-69
2023/05/23 00:27:34;;;;;;;47.55;24.27;;;;;;;13.19;100.00;101545.91;10371960;28;20045;-72
2023/05/23 00:32:35;;;;;;;47.72;22.20;;;;;;;13.20;100.00;101545.66;10372728;28;20041;-71
2023/05/23 00:37:35;;;;;;;52.72;23.00;;;;;;;13.25;100.00;101555.94;10357057;28;20391;-71
2023/05/23 00:42:36;;;;;;;37.75;19.77;;;;;;;13.18;100.00;101556.13;10373566;28;20052;-71
2023/05/23 00:47:40;;;;;;;37.05;18.33;;;;;;;13.14;100.00;101546.66;10395382;28;20041;-71
2023/05/23 00:52:41;;;;;;;36.45;18.42;;;;;;;13.23;100.00;101558.13;10356034;28;20050;-72
2023/05/23 00:57:43;;;;;;;34.88;15.23;;;;;;;13.23;100.00;101560.88;10370779;28;20103;-71
2023/05/23 01:02:44;;;;;;;34.95;15.93;;;;;;;13.15;100.00;101548.34;10372009;28;20145;-72
2023/05/23 01:07:45;;;;;;;29.02;14.63;;;;;;;13.29;100.00;101566.28;10372132;28;20042;-71
2023/05/23 01:13:14;;;;;;;32.95;13.98;;;;;;;13.15;100.00;101525.38;10354698;28;20062;-71
2023/05/23 01:18:25;;;;;;;25.08;14.55;;;;;;;13.36;100.00;101560.56;10410517;28;20038;-70
2023/05/23 01:23:31;;;;;;;35.95;16.60;;;;;;;13.39;100.00;101565.56;10413995;28;20068;-69
2023/05/23 01:28:36;;;;;;;30.70;15.70;;;;;;;13.37;100.00;101578.81;10412491;28;20410;-69
2023/05/23 01:33:37;;;;;;;28.33;15.52;;;;;;;13.28;100.00;101570.09;10349523;28;20546;-70
2023/05/23 01:38:37;;;;;;;32.70;17.50;;;;;;;13.29;100.00;101587.53;10306674;28;20030;-70
2023/05/23 01:43:38;;;;;;;29.50;14.93;;;;;;;13.19;100.00;101592.91;10370856;28;20076;-69
2023/05/23 01:48:39;;;;;;;27.85;15.35;;;;;;;13.15;100.00;101575.13;10353804;28;20038;-68
2023/05/23 01:53:39;;;;;;;29.15;13.23;;;;;;;13.12;100.00;101598.63;10354068;28;20042;-68
2023/05/23 01:58:40;;;;;;;31.00;14.48;;;;;;;13.05;100.00;101595.19;10370944;28;20453;-68
2023/05/23 02:03:41;;;;;;;21.20;11.00;;;;;;;12.65;100.00;101543.72;10354353;28;20037;-69
2023/05/23 02:08:41;;;;;;;24.98;10.70;;;;;;;12.94;100.00;101608.03;10356237;28;20037;-68
2023/05/23 02:13:42;;;;;;;21.65;10.88;;;;;;;12.94;100.00;101624.63;10378139;28;20038;-67
2023/05/23 02:18:45;;;;;;;18.42;9.73;;;;;;;12.85;100.00;101631.63;10360313;28;20045;-67
2023/05/23 02:23:45;;;;;;;19.20;9.80;;;;;;;12.85;100.00;101637.16;10418022;28;20037;-69
2023/05/23 02:28:46;;;;;;;14.40;7.55;;;;;;;12.87;100.00;101633.06;10419634;28;20034;-69
2023/05/23 02:33:46;;;;;;;16.77;7.13;;;;;;;12.83;100.00;101633.81;10383288;28;20498;-69
2023/05/23 02:38:47;;;;;;;15.40;7.45;;;;;;;12.78;100.00;101622.69;10388933;28;20038;-69
2023/05/23 02:43:47;;;;;;;17.58;7.97;;;;;;;12.66;100.00;101644.84;10418288;28;20040;-69
2023/05/23 02:48:48;;;;;;;14.25;7.07;;;;;;;12.64;100.00;101652.56;10417614;28;20079;-69
2023/05/23 02:53:48;;;;;;;15.07;6.75;;;;;;;12.54;100.00;101664.25;10418280;28;20045;-69
2023/05/23 02:58:49;;;;;;;16.33;6.85;;;;;;;12.45;100.00;101646.41;10402270;28;20168;-68
2023/05/23 03:03:49;;;;;;;21.17;8.23;;;;;;;12.47;100.00;101658.06;10415885;28;20049;-69
2023/05/23 03:08:50;;;;;;;20.33;7.88;;;;;;;12.46;100.00;101662.75;10416743;28;20567;-69
2023/05/23 03:13:50;;;;;;;19.23;8.00;;;;;;;12.40;100.00;101671.16;10400967;28;20033;-69
2023/05/23 03:18:51;;;;;;;15.15;7.72;;;;;;;12.36;100.00;101673.59;10383787;28;20093;-70
2023/05/23 03:23:51;;;;;;;17.23;6.38;;;;;;;12.24;100.00;101684.69;10415721;28;20034;-69
2023/05/23 03:28:52;;;;;;;13.75;5.68;;;;;;;12.03;100.00;101679.81;10417689;28;20030;-68
2023/05/23 03:33:52;;;;;;;20.33;6.80;;;;;;;11.88;100.00;101694.97;10384997;28;20051;-69
2023/05/23 03:38:53;;;;;;;14.32;6.93;;;;;;;11.91;100.00;101700.00;10416145;28;20045;-69
2023/05/23 03:43:53;;;;;;;20.15;7.07;;;;;;;11.84;100.00;101696.50;10398553;28;20041;-69
2023/05/23 03:48:54;;;;;;;14.65;5.28;;;;;;;11.82;100.00;101700.59;10420177;28;20048;-69
2023/05/23 03:53:54;;;;;;;17.20;4.50;;;;;;;11.85;100.00;101706.47;10399621;28;20034;-70
2023/05/23 03:58:55;;;;;;;13.63;6.22;;;;;;;11.77;100.00;101720.63;10418779;28;20517;-69
2023/05/23 04:03:55;;;;;;;14.75;5.40;;;;;;;11.69;100.00;101729.28;10414846;28;20041;-68
2023/05/23 04:08:56;;;;;;;15.57;5.78;;;;;;;11.55;100.00;101733.38;10415143;28;21141;-69
2023/05/23 04:13:57;;;;;;;17.65;5.50;;;;;;;11.52;100.00;101742.97;10414997;28;20470;-69
2023/05/23 04:18:58;;;;;;;16.80;7.40;;;;;;;11.42;100.00;101751.81;10414247;28;20030;-69
2023/05/23 04:24:00;;;;;;;20.45;7.22;;;;;;;11.39;100.00;101759.72;10414393;28;20350;-68
2023/05/23 04:29:03;;;;;;;22.92;8.27;;;;;;;11.42;100.00;101762.84;10416667;28;20354;-69
2023/05/23 04:34:03;;;;;;;24.23;6.38;;;;;;;11.35;100.00;101769.53;10357956;28;20085;-67
2023/05/23 04:39:04;;;;;;;19.80;7.72;;;;;;;11.40;100.00;101773.28;10368017;28;20088;-68
2023/05/23 04:44:05;;;;;;;14.48;5.95;;;;;;;11.41;100.00;101776.88;10412711;28;20041;-68
2023/05/23 04:49:05;;;;;;;23.40;4.95;;;;;;;11.39;100.00;101785.41;10415283;28;20106;-68
2023/05/23 04:54:06;;;;;;;17.55;5.22;;;;;;;11.38;100.00;101783.69;10416148;28;20029;-67
2023/05/23 04:59:10;;;;;;;15.80;5.55;;;;;;;11.43;100.00;101792.13;10414102;28;20485;-68
2023/05/23 05:04:10;;;;;;;14.82;4.47;;;;;;;11.41;100.00;101802.53;10362872;28;20042;-68
2023/05/23 05:09:11;;;;;;;13.68;4.47;;;;;;;11.45;100.00;101812.03;10373359;28;20053;-68
2023/05/23 05:14:11;;;;;;;16.85;4.35;;;;;;;11.42;100.00;101814.41;10398229;28;20414;-67
2023/05/23 05:19:12;;;;;;;12.55;3.58;;;;;;;11.46;100.00;101813.69;10411338;28;20041;-68
2023/05/23 05:24:12;;;;;;;14.25;4.45;;;;;;;11.48;100.00;101817.03;10413345;28;20045;-68
2023/05/23 05:29:13;;;;;;;12.80;3.25;;;;;;;11.48;100.00;101828.06;10396954;28;20034;-68
2023/05/23 05:34:14;;;;;;;10.95;3.80;;;;;;;11.45;100.00;101831.31;10412428;28;20474;-69
2023/05/23 05:39:15;;;;;;;11.70;3.28;;;;;;;11.38;100.00;101838.84;10386954;28;20045;-68
2023/05/23 05:44:16;;;;;;;18.52;4.07;;;;;;;11.36;100.00;101857.53;10353709;28;20042;-68
2023/05/23 05:49:16;;;;;;;15.30;4.60;;;;;;;11.38;100.00;101849.03;10372559;28;20038;-69
2023/05/23 05:54:17;;;;;;;24.45;6.32;;;;;;;11.37;100.00;101862.00;10371638;28;20049;-69
2023/05/23 05:59:17;;;;;;;18.33;5.53;;;;;;;11.19;100.00;101879.41;10371700;28;20040;-69
2023/05/23 06:04:18;;;;;;;21.98;7.18;;;;;;;10.97;100.00;101873.56;10372081;28;20030;-68
2023/05/23 06:09:18;;;;;;;19.17;6.93;;;;;;;10.97;100.00;101887.34;10371737;28;20045;-69
2023/05/23 06:14:19;;;;;;;18.48;6.85;;;;;;;10.85;100.00;101883.69;10370257;28;20406;-68
2023/05/23 06:19:19;;;;;;;14.38;4.25;;;;;;;10.88;100.00;101894.25;10371957;28;20045;-69
2023/05/23 06:24:20;;;;;;;19.70;5.30;;;;;;;10.95;100.00;101906.03;10354737;28;20058;-69
2023/05/23 06:29:20;;;;;;;11.93;4.63;;;;;;;10.84;100.00;101906.81;10370666;28;20045;-69
2023/05/23 06:34:21;;;;;;;13.25;3.55;;;;;;;10.88;100.00;101921.81;10372010;28;20049;-69
2023/05/23 06:39:21;;;;;;;16.08;3.63;;;;;;;10.89;100.00;101923.47;10370771;28;20045;-69
2023/05/23 06:44:22;;;;;;;16.38;3.78;;;;;;;10.77;100.00;101908.78;10369298;28;20038;-70
2023/05/23 06:49:23;;;;;;;16.50;3.55;;;;;;;10.49;100.00;101874.38;10369155;28;20160;-69
2023/05/23 06:54:23;;;;;;;13.07;3.08;;;;;;;10.83;100.00;101946.44;10371944;28;20045;-68
2023/05/23 06:59:24;;;;;;;11.18;3.60;;;;;;;10.73;100.00;101948.88;10377834;28;20041;-68
2023/05/23 07:04:24;;;;;;;13.90;3.13;;;;;;;10.73;100.00;101949.75;10379486;28;20046;-70
2023/05/23 07:09:25;;;;;;;11.32;2.88;;;;;;;10.70;100.00;101948.28;10387829;28;20038;-68
2023/05/23 07:14:25;;;;;;;11.45;2.47;;;;;;;11.15;100.00;101955.38;10376364;28;20038;-69
2023/05/23 07:19:26;;;;;;;14.38;3.40;;;;;;;11.60;100.00;101954.97;10320389;28;20034;-70
2023/05/23 07:24:26;;;;;;;15.73;4.38;;;;;;;11.72;100.00;101952.25;10338590;28;20038;-71
2023/05/23 07:29:26;;;;;;;10.95;2.47;;;;;;;11.64;100.00;101969.97;10320015;28;20034;-70
2023/05/23 07:34:27;;;;;;;16.75;3.53;;;;;;;11.75;100.00;101964.75;10364254;28;20037;-71
2023/05/23 07:39:28;;;;;;;13.27;3.20;;;;;;;11.62;100.00;101976.81;10383755;28;20126;-71
2023/05/23 07:44:28;;;;;;;20.10;3.58;;;;;;;11.46;100.00;101992.94;10399913;28;20070;-70
2023/05/23 07:49:29;;;;;;;17.38;3.30;;;;;;;11.55;100.00;101993.44;10395888;28;20037;-70
2023/05/23 07:54:29;;;;;;;14.45;3.42;;;;;;;11.49;100.00;102000.75;10394831;28;20300;-68
2023/05/23 07:59:30;;;;;;;17.60;2.72;;;;;;;11.78;100.00;101987.19;10415865;28;20029;-69
2023/05/23 08:04:31;;;;;;;18.02;3.78;;;;;;;11.86;100.00;101992.34;10404517;28;20052;-70
2023/05/23 08:09:31;;;;;;;16.58;2.75;;;;;;;12.28;100.00;101991.53;10393415;28;20482;-70
2023/05/23 08:14:32;;;;;;;10.93;2.33;;;;;;;12.37;100.00;102005.81;10389308;28;20742;-69
2023/05/23 08:19:32;;;;;;;10.60;2.45;;;;;;;12.46;100.00;102013.50;10392889;28;20571;-69
2023/05/23 08:24:33;;;;;;;7.10;2.50;;;;;;;12.45;100.00;101999.94;10395561;28;20053;-69
2023/05/23 08:29:34;;;;;;;17.48;3.03;;;;;;;12.56;100.00;101998.25;10376159;28;20037;-69
2023/05/23 08:34:34;;;;;;;13.63;3.08;;;;;;;12.71;100.00;102013.28;10396250;28;20052;-70
2023/05/23 08:39:35;;;;;;;25.35;4.68;;;;;;;12.42;100.00;102020.59;10401780;28;20044;-70
2023/05/23 08:44:35;;;;;;;16.20;4.15;;;;;;;12.53;100.00;102016.16;10407806;28;20092;-68
2023/05/23 08:49:36;;;;;;;17.10;3.05;;;;;;;13.10;100.00;102010.81;10385394;28;20068;-70
2023/05/23 08:54:37;;;;;;;14.80;2.95;;;;;;;13.58;100.00;102022.63;10360604;28;20478;-70
2023/05/23 08:59:37;;;;;;;14.93;3.50;;;;;;;13.52;100.00;102029.13;10356781;28;20041;-69
2023/05/23 09:04:38;;;;;;;12.90;2.58;;;;;;;13.92;100.00;102022.69;10362485;28;20117;-70
2023/05/23 09:09:38;;;;;;;15.88;2.72;;;;;;;14.15;100.00;102037.50;10333527;28;20038;-69
2023/05/23 09:14:40;;;;;;;28.35;3.42;;;;;;;13.72;100.00;102039.75;10343666;28;20062;-69
2023/05/23 09:19:41;;;;;;;19.23;3.25;;;;;;;13.56;100.00;102051.59;10351396;28;20498;-69
2023/05/23 09:24:43;;;;;;;14.73;2.88;;;;;;;13.36;100.00;102049.28;10356994;28;20054;-70
2023/05/23 09:29:43;;;;;;;13.90;2.53;;;;;;;13.46;100.00;102060.56;10357646;28;20033;-70
2023/05/23 09:35:03;;;;;;;9.98;2.80;;;;;;;13.31;100.00;102061.03;10337498;28;20038;-73
2023/05/23 09:40:11;;;;;;;14.95;3.00;;;;;;;13.21;100.00;102063.56;10373336;28;20518;-70
2023/05/23 09:45:12;;;;;;;12.35;2.42;;;;;;;12.91;100.00;102057.09;10394234;28;20102;-70
2023/05/23 09:50:13;;;;;;;9.98;3.55;;;;;;;12.90;100.00;102071.19;10391271;28;20034;-71
2023/05/23 09:55:14;;;;;;;6.78;1.77;;;;;;;12.68;100.00;102035.84;10391133;28;20038;-69
2023/05/23 10:00:14;;;;;;;8.13;2.38;;;;;;;13.10;100.00;102079.94;10373749;28;20438;-69
2023/05/23 10:05:34;;;;;;;6.43;2.83;;;;;;;13.28;100.00;102061.50;10390156;28;20066;-69
2023/05/23 10:10:35;;;;;;;15.75;2.35;;;;;;;13.48;100.00;102069.44;10389174;28;20108;-70
2023/05/23 10:15:38;;;;;;;15.40;3.20;;;;;;;13.50;100.00;102065.34;10397753;28;20067;-68
2023/05/23 10:20:39;;;;;;;14.45;2.10;;;;;;;13.80;100.00;102074.50;10385375;28;20053;-71
2023/05/23 10:25:40;;;;;;;11.35;2.05;;;;;;;14.09;100.00;102067.03;10340305;28;20101;-71
2023/05/23 10:30:41;;;;;;;11.88;2.25;;;;;;;14.33;100.00;102057.50;10331638;28;20053;-70
2023/05/23 10:35:59;;;;;;;12.73;2.42;;;;;;;14.51;100.00;102078.59;10339686;28;20045;-71
2023/05/23 10:41:05;;;;;;;14.27;2.10;;;;;;;14.29;100.00;102067.38;10351315;28;20056;-69
2023/05/23 10:46:13;;;;;;;14.23;3.55;;;;;;;13.77;100.00;102070.31;10356383;28;20045;-70
2023/05/23 10:51:14;;;;;;;11.70;2.67;;;;;;;13.93;100.00;102086.13;10349995;28;20050;-70
2023/05/23 10:56:21;;;;;;;15.68;2.58;;;;;;;14.40;100.00;102078.66;10353034;28;20070;-70
2023/05/23 11:01:22;;;;;;;;;;;;;;;14.29;100.00;102097.03;10356487;28;21029;-69
2023/05/23 11:06:39;;;;;;;8.45;2.45;;;;;;;13.77;100.00;102091.63;10367621;28;19953;-69
2023/05/23 11:11:52;;;;;;;11.10;2.05;;;;;;;13.93;100.00;102102.75;10354567;28;20042;-70
2023/05/23 11:16:53;;;;;;;13.45;2.30;;;;;;;14.48;100.00;102098.47;10352707;28;20050;-70
2023/05/23 11:21:57;;;;;;;10.07;1.80;;;;;;;14.17;100.00;102088.78;10349996;28;20081;-69
2023/05/23 11:27:02;;;;;;;8.15;2.97;;;;;;;14.33;100.00;102085.19;10349227;28;20113;-70
2023/05/23 11:32:11;;;;;;;12.35;2.17;;;;;;;13.93;100.00;102101.88;10378403;28;20049;-69
2023/05/23 11:37:11;;;;;;;17.73;2.97;;;;;;;14.06;100.00;102106.31;10352977;28;20402;-69
2023/05/23 11:42:12;;;;;;;10.77;2.80;;;;;;;13.73;100.00;102107.88;10360831;28;20046;-69
2023/05/23 11:47:12;;;;;;;14.25;2.38;;;;;;;13.49;100.00;102132.81;10390145;28;20061;-69
2023/05/23 11:52:13;;;;;;;11.93;3.50;;;;;;;13.35;100.00;102133.31;10356349;28;20097;-69
2023/05/23 11:57:13;;;;;;;11.98;2.67;;;;;;;13.86;100.00;102126.13;10389107;28;20093;-69
2023/05/23 12:02:14;;;;;;;11.15;2.03;;;;;;;15.43;100.00;102115.19;10379088;28;20597;-69
2023/05/23 12:07:18;;;;;;;13.45;2.45;;;;;;;15.73;100.00;102102.88;10379300;28;20697;-70
2023/05/23 12:12:19;;;;;;;10.65;2.20;;;;;;;15.09;100.00;102104.19;10362360;28;20098;-70
2023/05/23 12:17:20;;;;;;;9.60;1.70;;;;;;;14.88;100.00;102107.72;10363119;28;20118;-70
2023/05/23 12:22:23;;;;;;;18.80;3.03;;;;;;;14.82;100.00;102122.59;10346677;28;20166;-70
2023/05/23 12:27:34;;;;;;;15.52;3.55;;;;;;;14.13;100.00;102135.50;10376131;28;20045;-69
2023/05/23 12:32:44;;;;;;;13.95;2.85;;;;;;;14.66;100.00;102127.91;10346263;28;20062;-70
2023/05/23 12:37:45;;;;;;;14.55;2.30;;;;;;;14.82;100.00;102130.94;10378242;28;20056;-69
2023/05/23 12:42:55;;;;;;;12.95;2.65;;;;;;;14.85;100.00;102141.53;10375121;28;20053;-69
2023/05/23 12:47:56;;;;;;;9.13;2.70;;;;;;;15.06;100.00;102148.22;10358552;28;20636;-73
2023/05/23 12:52:56;;;;;;;11.02;1.45;;;;;;;16.46;100.00;102110.84;10337173;28;20060;-73
2023/05/23 12:57:57;;;;;;;6.03;2.28;;;;;;;16.26;100.00;102122.59;10359273;28;20988;-72
2023/05/23 13:02:58;;;;;;;18.48;3.15;;;;;;;16.02;100.00;102138.72;10370480;28;20049;-70
2023/05/23 13:07:59;;;;;;;13.63;2.22;;;;;;;15.83;100.00;102119.63;10388552;28;20045;-70
2023/05/23 13:12:59;;;;;;;21.48;2.33;;;;;;;15.64;100.00;102132.13;10391489;28;20041;-70
2023/05/23 13:18:00;;;;;;;9.77;1.83;;;;;;;16.40;100.00;102103.56;10386902;28;20050;-68
2023/05/23 13:23:00;;;;;;;14.70;1.90;;;;;;;16.70;100.00;102123.31;10374950;28;20453;-70
2023/05/23 13:28:01;;;;;;;9.13;1.70;;;;;;;16.86;97.47;102109.53;10366782;28;20049;-69
2023/05/23 13:33:02;;;;;;;15.48;2.72;;;;;;;16.64;100.00;102141.06;10374478;28;20041;-70
2023/05/23 13:38:02;;;;;;;12.57;2.45;;;;;;;16.68;96.03;102119.94;10390430;28;20042;-69
2023/05/23 13:43:03;;;;;;;7.40;2.47;;;;;;;17.23;97.88;102147.63;10390244;28;20057;-69
2023/05/23 13:48:03;;;;;;;8.85;1.70;;;;;;;17.86;92.56;102112.34;10375949;28;20502;-70
2023/05/23 13:53:11;;;;;;;10.80;1.83;;;;;;;17.04;89.28;102122.19;10373188;28;20149;-71
2023/05/23 13:58:11;;;;;;;15.73;2.53;;;;;;;17.08;92.83;102140.88;10351520;28;20038;-70
2023/05/23 14:03:14;;;;;;;12.20;1.92;;;;;;;16.49;90.98;102125.03;10340420;28;20054;-70
2023/05/23 14:08:15;;;;;;;11.05;2.38;;;;;;;16.79;88.61;102120.03;10349543;28;20038;-70
2023/05/23 14:13:16;;;;;;;13.77;2.78;;;;;;;15.68;90.72;102133.28;10355414;28;20049;-69
2023/05/23 14:18:16;;;;;;;7.45;1.13;;;;;;;16.07;88.98;102130.47;10321539;28;20035;-72
2023/05/23 14:23:17;;;;;;;6.28;1.55;;;;;;;16.51;89.62;102141.47;10316423;28;20088;-70
2023/05/23 14:28:17;;;;;;;10.05;1.75;;;;;;;16.22;90.21;102138.94;10343374;28;20061;-69
2023/05/23 14:33:18;;;;;;;6.72;1.38;;;;;;;17.02;85.37;102122.47;10353946;28;20088;-71
2023/05/23 14:38:19;;;;;;;6.50;1.83;;;;;;;16.32;79.73;102054.84;10351408;28;20043;-71
2023/05/23 14:43:20;;;;;;;15.68;1.77;;;;;;;17.13;81.51;102115.84;10395906;28;20049;-71
2023/05/23 14:48:21;;;;;;;6.07;2.10;;;;;;;17.21;84.29;102133.16;10372343;28;20049;-70
2023/05/23 14:53:22;;;;;;;7.75;1.63;;;;;;;18.32;83.93;102142.28;10390566;28;20076;-71
2023/05/23 14:58:24;;;;;;;12.18;2.10;;;;;;;18.24;80.28;102129.72;10392701;28;20029;-70
2023/05/23 15:03:25;;;;;;;9.30;2.22;;;;;;;18.82;75.27;102117.53;10391332;28;20034;-71
2023/05/23 15:08:26;;;;;;;6.07;1.35;;;;;;;18.06;74.20;102133.03;10404166;28;20420;-72
2023/05/23 15:13:29;;;;;;;7.05;1.40;;;;;;;18.83;74.95;102124.78;10410146;28;20042;-66
2023/05/23 15:18:30;;;;;;;11.93;1.50;;;;;;;16.91;79.27;102156.88;10390499;28;20042;-70
2023/05/23 15:23:31;;;;;;;9.55;2.13;;;;;;;15.91;81.11;102169.16;10367664;28;20574;-69
2023/05/23 15:28:31;;;;;;;7.28;1.25;;;;;;;16.15;81.88;102143.88;10353533;28;20037;-68
2023/05/23 15:33:32;;;;;;;8.60;1.70;;;;;;;16.72;77.79;102137.78;10350105;28;20410;-70
2023/05/23 15:38:32;;;;;;;10.68;1.90;;;;;;;15.64;82.24;102176.53;10347559;28;20052;-70
2023/05/23 15:43:34;;;;;;;13.18;2.13;;;;;;;15.70;83.33;102170.81;10350192;28;20065;-70
2023/05/23 15:48:34;;;;;;;11.93;2.00;;;;;;;17.39;78.84;102170.84;10342121;28;20169;-70
2023/05/23 15:53:35;;;;;;;9.68;1.40;;;;;;;17.18;77.40;102156.81;10348415;28;20056;-70
2023/05/23 15:58:35;;;;;;;9.05;1.23;;;;;;;15.92;80.73;102175.56;10338843;28;20046;-69
2023/05/23 16:03:36;;;;;;;12.52;2.15;;;;;;;14.91;83.47;102177.41;10338160;28;20046;-70
2023/05/23 16:08:37;;;;;;;9.00;1.77;;;;;;;16.53;81.48;102178.19;10335293;28;20628;-71
2023/05/23 16:13:37;;;;;;;11.38;1.17;;;;;;;17.26;77.83;102152.66;10334624;28;20030;-69
2023/05/23 16:18:38;;;;;;;5.75;1.45;;;;;;;16.94;75.08;102156.34;10333706;28;20038;-70
2023/05/23 16:23:39;;;;;;;10.35;1.98;;;;;;;17.62;74.77;102155.66;10334264;28;20042;-70
2023/05/23 16:28:42;;;;;;;9.13;2.65;;;;;;;17.71;75.70;102163.25;10336510;28;20058;-70
2023/05/23 16:33:43;;;;;;;7.55;1.73;;;;;;;18.09;75.95;102155.63;10335886;28;20046;-70
2023/05/23 16:38:44;;;;;;;10.73;3.00;;;;;;;18.85;75.58;102153.22;10346477;28;20474;-71
2023/05/23 16:43:45;;;;;;;7.30;1.33;;;;;;;17.91;73.34;102151.38;10359414;28;20057;-71
2023/05/23 16:48:45;;;;;;;7.55;1.60;;;;;;;17.51;72.78;102149.22;10359202;28;20069;-70
2023/05/23 16:53:46;;;;;;;14.43;1.75;;;;;;;17.02;76.39;102164.19;10359855;28;20046;-71
2023/05/23 16:58:47;;;;;;;10.18;1.63;;;;;;;16.83;77.97;102174.06;10357946;28;20033;-70
2023/05/23 17:03:47;;;;;;;6.55;1.23;;;;;;;15.57;78.79;102164.81;10358320;28;20073;-69
2023/05/23 17:08:49;;;;;;;11.82;2.67;;;;;;;14.41;83.33;102185.63;10356059;28;20096;-70
2023/05/23 17:13:52;;;;;;;10.38;1.30;;;;;;;13.89;83.90;102190.13;10356574;28;20057;-69
2023/05/23 17:18:52;;;;;;;8.38;1.77;;;;;;;13.19;85.67;102188.25;10352731;28;20060;-70
2023/05/23 17:23:54;;;;;;;7.20;1.17;;;;;;;12.75;88.86;102208.97;10356097;28;20053;-70
2023/05/23 17:28:55;;;;;;;10.27;2.00;;;;;;;12.46;93.95;102217.91;10354737;28;20113;-69
2023/05/23 17:33:56;;;;;;;9.93;3.47;;;;;;;12.55;95.60;102217.53;10349209;28;20034;-69
2023/05/23 17:38:58;;;;;;;11.07;2.38;;;;;;;12.72;98.58;102226.88;10328983;28;20141;-70
2023/05/23 17:44:00;;;;;;;12.93;2.33;;;;;;;12.64;99.54;102217.00;10345320;28;20589;-70
2023/05/23 17:49:01;;;;;;;12.95;2.00;;;;;;;12.43;100.00;102220.28;10350976;28;20042;-69
2023/05/23 17:54:03;;;;;;;9.23;1.90;;;;;;;12.19;99.03;102231.19;10356942;28;20038;-70
2023/05/23 17:59:06;;;;;;;11.07;2.17;;;;;;;12.14;100.00;102233.84;10356394;28;20057;-70
2023/05/23 18:04:08;;;;;;;7.43;1.75;;;;;;;12.09;100.00;102239.19;10335270;28;20046;-69
2023/05/23 18:09:08;;;;;;;13.45;1.60;;;;;;;11.87;100.00;102241.56;10338660;28;20045;-70
2023/05/23 18:14:09;;;;;;;12.90;2.35;;;;;;;11.73;100.00;102240.84;10354520;28;20050;-69
2023/05/23 18:19:09;;;;;;;8.80;1.70;;;;;;;11.46;100.00;102267.84;10354729;28;20038;-68
2023/05/23 18:24:10;;;;;;;22.63;4.03;;;;;;;11.28;100.00;102263.13;10353843;28;20038;-69
2023/05/23 18:29:11;;;;;;;12.63;2.97;;;;;;;11.13;100.00;102263.47;10357430;28;20030;-69
2023/05/23 18:34:12;;;;;;;14.80;2.60;;;;;;;11.16;100.00;102259.41;10354029;28;20053;-69
2023/05/23 18:39:15;;;;;;;14.00;3.30;;;;;;;11.15;100.00;102263.25;10352602;28;20421;-70
2023/05/23 18:44:20;;;;;;;14.10;3.00;;;;;;;11.01;100.00;102263.34;10321567;28;20105;-70
2023/05/23 18:49:22;;;;;;;11.40;2.28;;;;;;;10.85;100.00;102272.13;10347776;28;20038;-71
2023/05/23 18:54:24;;;;;;;16.05;3.33;;;;;;;10.86;100.00;102279.34;10363500;28;20042;-70
2023/05/23 18:59:24;;;;;;;10.52;3.78;;;;;;;10.73;100.00;102277.53;10359893;28;20034;-70
2023/05/23 19:04:26;;;;;;;10.07;2.35;;;;;;;10.57;100.00;102273.38;10360221;28;20046;-70
2023/05/23 19:09:27;;;;;;;18.02;3.55;;;;;;;10.49;100.00;102287.41;10361987;28;20554;-71
2023/05/23 19:14:28;;;;;;;19.70;3.08;;;;;;;10.30;100.00;102279.00;10376721;28;20038;-70
2023/05/23 19:19:28;;;;;;;25.73;4.82;;;;;;;10.34;100.00;102295.09;10362698;28;20560;-69
2023/05/23 19:24:31;;;;;;;13.35;2.00;;;;;;;10.23;100.00;102302.94;10361514;28;20048;-70
2023/05/23 19:29:31;;;;;;;15.27;2.67;;;;;;;10.29;100.00;102310.38;10358740;28;20101;-70
2023/05/23 19:34:32;;;;;;;13.98;2.33;;;;;;;10.34;100.00;102311.63;10360653;28;20057;-69
2023/05/23 19:39:33;;;;;;;16.05;2.58;;;;;;;10.16;100.00;102307.59;10361756;28;20632;-70
2023/05/23 19:44:33;;;;;;;9.80;2.92;;;;;;;10.08;100.00;102318.84;10358113;28;20069;-70
2023/05/23 19:49:36;;;;;;;14.20;3.00;;;;;;;9.99;100.00;102321.00;10360453;28;20117;-70
2023/05/23 19:54:37;;;;;;;13.48;3.38;;;;;;;10.08;100.00;102319.69;10358085;28;20050;-69
2023/05/23 19:59:37;;;;;;;15.38;2.22;;;;;;;10.05;100.00;102313.78;10346345;28;20049;-70
2023/05/23 20:04:40;;;;;;;12.38;3.40;;;;;;;9.88;100.00;102314.25;10359286;28;20088;-70
2023/05/23 20:09:42;;;;;;;15.32;3.20;;;;;;;9.66;100.00;102316.38;10355852;28;20034;-69
2023/05/23 20:14:42;;;;;;;11.07;2.58;;;;;;;9.49;100.00;102326.97;10359648;28;20042;-70
2023/05/23 20:19:43;;;;;;;14.70;3.38;;;;;;;9.40;100.00;102317.22;10342492;28;20045;-69
2023/05/23 20:24:45;;;;;;;21.15;4.75;;;;;;;9.29;100.00;102317.88;10359012;28;20044;-69
2023/05/23 20:29:46;;;;;;;17.48;4.72;;;;;;;9.19;100.00;102322.94;10356510;28;20104;-68
2023/05/23 20:34:49;;;;;;;19.50;2.97;;;;;;;9.16;100.00;102317.88;10344717;28;20038;-69
2023/05/23 20:39:51;;;;;;;16.20;3.53;;;;;;;9.12;100.00;102322.09;10334823;28;20034;-69
2023/05/23 20:44:53;;;;;;;16.50;3.58;;;;;;;9.19;100.00;102317.44;10335875;28;20052;-71
2023/05/23 20:49:54;;;;;;;21.33;4.93;;;;;;;9.20;100.00;102322.72;10344945;28;20125;-69
2023/05/23 20:54:56;;;;;;;28.85;5.40;;;;;;;9.13;100.00;102324.63;10344831;28;20038;-69
2023/05/23 20:59:57;;;;;;;15.32;4.10;;;;;;;9.11;100.00;102317.63;10343999;28;20054;-68
2023/05/23 21:04:58;;;;;;;22.63;4.20;;;;;;;9.00;100.00;102319.94;10327341;28;20076;-70
2023/05/23 21:09:59;;;;;;;21.38;3.40;;;;;;;8.85;100.00;102333.03;10332221;28;20042;-69
2023/05/23 21:14:59;;;;;;;17.05;3.38;;;;;;;8.80;100.00;102327.28;10334186;28;20566;-71
2023/05/23 21:20:00;;;;;;;14.38;5.05;;;;;;;8.74;100.00;102322.63;10357599;28;20054;-70
2023/05/23 21:25:00;;;;;;;26.83;5.22;;;;;;;8.67;100.00;102311.63;10356058;28;20060;-70
2023/05/23 21:30:02;;;;;;;20.92;4.30;;;;;;;8.51;100.00;102312.00;10318468;28;20053;-70
2023/05/23 21:35:02;;;;;;;27.73;5.07;;;;;;;8.55;100.00;102330.59;10354742;28;20042;-71
2023/05/23 21:40:04;;;;;;;27.70;5.10;;;;;;;8.17;100.00;102267.09;10355110;28;20046;-70
2023/05/23 21:45:05;;;;;;;21.48;4.75;;;;;;;7.77;100.00;102223.84;10362884;28;20462;-70
2023/05/23 21:50:07;;;;;;;29.42;5.32;;;;;;;8.22;100.00;102331.25;10411485;28;20424;-70
2023/05/23 21:55:08;;;;;;;28.75;4.85;;;;;;;8.16;100.00;102318.34;10410493;28;20048;-70
2023/05/23 22:00:12;;;;;;;16.63;4.07;;;;;;;8.07;100.00;102320.41;10410395;28;20160;-71
2023/05/23 22:05:12;;;;;;;28.02;6.03;;;;;;;7.98;100.00;102323.50;10402450;28;20042;-71
2023/05/23 22:10:13;;;;;;;20.05;5.35;;;;;;;7.89;100.00;102315.44;10388316;28;20037;-71
2023/05/23 22:15:13;;;;;;;26.58;4.80;;;;;;;7.79;100.00;102314.09;10404337;28;20344;-71
2023/05/23 22:20:15;;;;;;;28.95;5.60;;;;;;;7.74;100.00;102314.72;10408481;28;20390;-71
2023/05/23 22:25:16;;;;;;;23.75;5.38;;;;;;;7.70;100.00;102316.16;10375504;28;20057;-71
2023/05/23 22:30:16;;;;;;;26.70;4.82;;;;;;;7.63;100.00;102316.13;10378232;28;20030;-70
2023/05/23 22:35:17;;;;;;;22.08;5.15;;;;;;;7.59;100.00;102313.97;10378913;28;20041;-72
2023/05/23 22:40:17;;;;;;;22.10;5.32;;;;;;;7.58;100.00;102324.06;10378931;28;20038;-70